createdAt,value
2023-04-13T00:01:59.560Z,100812.78
2023-04-13T00:07:03.243Z,100809.22
2023-04-13T00:12:08.788Z,100810.03
2023-04-13T00:17:12.451Z,100799.97
2023-04-13T00:22:16.390Z,100801.09
2023-04-13T00:27:21.782Z,100800.19
2023-04-13T00:32:26.382Z,100787.44
2023-04-13T00:37:30.176Z,100790.84
2023-04-13T00:42:35.899Z,100795.75
2023-04-13T00:47:39.710Z,100787.44
2023-04-13T00:52:43.776Z,100783.22
2023-04-13T00:57:50.011Z,100787.75
2023-04-13T01:02:54.562Z,100786.84
2023-04-13T01:08:05.420Z,100768.63
2023-04-13T01:13:19.233Z,100770.72
2023-04-13T01:18:25.013Z,100768.94
2023-04-13T01:23:31.183Z,100777.13
2023-04-13T01:28:38.807Z,100770.13
2023-04-13T01:33:43.276Z,100770.06
2023-04-13T01:38:47.148Z,100766.28
2023-04-13T01:43:52.682Z,100779.91
2023-04-13T01:48:59.260Z,100773.13
2023-04-13T01:54:07.390Z,100779.50
2023-04-13T01:59:12.775Z,100770.47
2023-04-13T02:04:16.753Z,100763.72
2023-04-13T02:09:20.432Z,100766.97
2023-04-13T02:14:25.873Z,100757.09
2023-04-13T02:19:29.739Z,100751.50
2023-04-13T02:24:33.576Z,100751.16
2023-04-13T02:29:38.839Z,100739.81
2023-04-13T02:34:42.424Z,100748.88
2023-04-13T02:39:46.108Z,100738.16
2023-04-13T02:44:51.638Z,100734.56
2023-04-13T02:49:55.377Z,100744.00
2023-04-13T02:54:59.122Z,100744.59
2023-04-13T03:00:04.917Z,100757.69
2023-04-13T03:05:09.208Z,100756.66
2023-04-13T03:10:13.101Z,100763.72
2023-04-13T03:15:18.537Z,100761.41
2023-04-13T03:20:22.261Z,100759.97
2023-04-13T03:25:25.959Z,100765.88
2023-04-13T03:30:31.243Z,100775.56
2023-04-13T03:35:34.945Z,100773.00
2023-04-13T03:40:38.557Z,100789.41
2023-04-13T03:45:43.946Z,100792.28
2023-04-13T03:50:47.602Z,100790.44
2023-04-13T03:55:51.624Z,100796.06
2023-04-13T04:00:56.947Z,100799.97
2023-04-13T04:06:00.584Z,100814.78
2023-04-13T04:11:04.445Z,100828.50
2023-04-13T04:16:10.688Z,100830.38
2023-04-13T04:21:14.411Z,100834.06
2023-04-13T04:26:18.050Z,100841.03
2023-04-13T04:31:23.389Z,100848.00
2023-04-13T04:36:27.041Z,100842.13
2023-04-13T04:41:31.490Z,100843.88
2023-04-13T04:46:36.793Z,100850.75
2023-04-13T04:51:40.434Z,100854.13
2023-04-13T04:56:44.064Z,100853.47
2023-04-13T05:01:49.365Z,100858.84
2023-04-13T05:06:53.062Z,100858.91
2023-04-13T05:11:57.343Z,100846.72
2023-04-13T05:17:02.647Z,100867.63
2023-04-13T05:22:06.251Z,100865.00
2023-04-13T05:27:09.912Z,100865.13
2023-04-13T05:32:15.866Z,100869.41
2023-04-13T05:37:19.533Z,100866.06
2023-04-13T05:42:23.134Z,100861.63
2023-04-13T05:47:30.298Z,100867.75
2023-04-13T05:52:33.939Z,100868.81
2023-04-13T05:57:37.524Z,100869.69
2023-04-13T06:02:42.863Z,100859.19
2023-04-13T06:07:47.048Z,100845.28
2023-04-13T06:12:50.749Z,100850.50
2023-04-13T06:17:56.164Z,100854.06
2023-04-13T06:22:59.830Z,100833.13
2023-04-13T06:28:03.620Z,100840.28
2023-04-13T06:33:09.328Z,100856.69
2023-04-13T06:38:12.940Z,100877.56
2023-04-13T06:43:28.741Z,100901.22
2023-04-13T06:48:34.876Z,100919.81
2023-04-13T06:53:38.505Z,100913.91
2023-04-13T06:58:42.077Z,100903.59
2023-04-13T07:03:47.447Z,100888.00
2023-04-13T07:08:51.328Z,100889.81
2023-04-13T07:13:54.985Z,100896.81
2023-04-13T07:19:00.392Z,100901.16
2023-04-13T07:24:04.212Z,100894.31
2023-04-13T07:29:07.839Z,100899.66
2023-04-13T07:34:13.116Z,100914.53
2023-04-13T07:39:16.699Z,100911.28
2023-04-13T07:44:20.300Z,100904.38
2023-04-13T07:49:25.566Z,100908.66
2023-04-13T07:54:29.202Z,100917.56
2023-04-13T07:59:32.997Z,100917.59
2023-04-13T08:04:38.520Z,100918.72
2023-04-13T08:09:43.185Z,100928.22
2023-04-13T08:14:46.867Z,100925.59
2023-04-13T08:19:52.215Z,100920.53
2023-04-13T08:24:55.835Z,100922.47
2023-04-13T08:29:59.548Z,100909.69
2023-04-13T08:35:05.063Z,100910.47
2023-04-13T08:40:09.988Z,100909.72
2023-04-13T08:45:14.034Z,100911.38
2023-04-13T08:50:23.422Z,100888.72
2023-04-13T08:55:27.137Z,100897.66
2023-04-13T09:00:31.136Z,100903.78
2023-04-13T09:05:40.357Z,100898.69
2023-04-13T09:10:44.128Z,100892.53
2023-04-13T09:15:48.033Z,100886.44
2023-04-13T09:21:01.532Z,100890.88
2023-04-13T09:26:09.086Z,100887.44
2023-04-13T09:31:14.262Z,100880.59
2023-04-13T09:36:20.865Z,100897.19
2023-04-13T09:41:32.651Z,100904.97
2023-04-13T09:46:36.421Z,100882.50
2023-04-13T09:51:42.302Z,100898.94
2023-04-13T09:56:49.715Z,100894.78
2023-04-13T10:01:54.031Z,100883.59
2023-04-13T10:06:59.408Z,100881.84
2023-04-13T10:12:03.952Z,100864.34
2023-04-13T10:17:30.621Z,100880.72
2023-04-13T10:22:35.205Z,100907.63
2023-04-13T10:27:38.888Z,100886.81
2023-04-13T10:32:42.690Z,100894.63
2023-04-13T10:37:58.693Z,100898.16
2023-04-13T10:43:02.390Z,100885.09
2023-04-13T10:48:06.359Z,100889.47
2023-04-13T10:53:11.687Z,100869.59
2023-04-13T10:58:17.054Z,100880.09
2023-04-13T11:03:20.921Z,100861.06
2023-04-13T11:08:26.490Z,100873.22
2023-04-13T11:13:30.174Z,100878.00
2023-04-13T11:18:33.860Z,100872.44
2023-04-13T11:23:39.210Z,100871.84
2023-04-13T11:28:43.504Z,100870.28
2023-04-13T11:33:50.152Z,100884.41
2023-04-13T11:38:55.540Z,100869.75
2023-04-13T11:44:02.142Z,100860.34
2023-04-13T11:49:05.997Z,100863.91
2023-04-13T11:54:11.420Z,100884.06
2023-04-13T11:59:15.142Z,100880.59
2023-04-13T12:04:19.222Z,100881.50
2023-04-13T12:09:43.966Z,100887.53
2023-04-13T12:15:09.697Z,100891.78
2023-04-13T12:20:20.515Z,100898.97
2023-04-13T12:25:34.864Z,100888.69
2023-04-13T12:30:40.351Z,100897.44
2023-04-13T12:35:44.025Z,100896.63
2023-04-13T12:40:49.389Z,100902.78
2023-04-13T12:45:53.302Z,100902.84
2023-04-13T12:50:56.931Z,100921.94
2023-04-13T12:56:02.628Z,100916.75
2023-04-13T13:01:06.420Z,100924.59
2023-04-13T13:06:10.372Z,100927.25
2023-04-13T13:11:15.617Z,100929.03
2023-04-13T13:16:19.385Z,100933.44
2023-04-13T13:21:23.226Z,100931.75
2023-04-13T13:26:36.260Z,100924.88
2023-04-13T13:31:49.464Z,100924.91
2023-04-13T13:36:53.145Z,100921.47
2023-04-13T13:41:58.409Z,100928.34
2023-04-13T13:47:02.054Z,100937.88
2023-04-13T13:52:05.979Z,100922.34
2023-04-13T13:57:12.210Z,100924.94
2023-04-13T14:02:15.894Z,100940.50
2023-04-13T14:07:19.583Z,100929.28
2023-04-13T14:12:24.933Z,100925.75
2023-04-13T14:17:28.734Z,100933.34
2023-04-13T14:22:32.422Z,100937.47
2023-04-13T14:27:38.310Z,100926.94
2023-04-13T14:32:41.930Z,100933.59
2023-04-13T14:37:45.618Z,100930.56
2023-04-13T14:42:52.534Z,100929.88
2023-04-13T14:47:56.280Z,100929.38
2023-04-13T14:52:59.970Z,100937.66
2023-04-13T14:58:05.237Z,100947.28
2023-04-13T15:03:09.813Z,100951.50
2023-04-13T15:08:13.693Z,100950.59
2023-04-13T15:13:18.971Z,100952.88
2023-04-13T15:18:22.684Z,100954.13
2023-04-13T15:23:27.801Z,100964.97
2023-04-13T15:28:33.093Z,100965.88
2023-04-13T15:33:37.102Z,100949.25
2023-04-13T15:38:40.722Z,100954.81
2023-04-13T15:43:46.007Z,100963.25
2023-04-13T15:48:49.714Z,100960.63
2023-04-13T15:53:53.348Z,100964.28
2023-04-13T15:58:58.854Z,100958.00
2023-04-13T16:04:02.744Z,100944.88
2023-04-13T16:09:06.521Z,100954.28
2023-04-13T16:14:11.780Z,100944.63
2023-04-13T16:19:15.756Z,100949.50
2023-04-13T16:24:19.457Z,100947.81
2023-04-13T16:29:24.746Z,100945.06
2023-04-13T16:34:28.517Z,100937.63
2023-04-13T16:39:32.221Z,100932.69
2023-04-13T16:44:37.710Z,100933.91
2023-04-13T16:49:41.529Z,100936.91
2023-04-13T16:54:45.168Z,100924.53
2023-04-13T16:59:50.533Z,100925.19
2023-04-13T17:04:54.165Z,100922.81
2023-04-13T17:09:57.887Z,100934.28
2023-04-13T17:15:03.444Z,100932.38
2023-04-13T17:20:08.523Z,100938.25
2023-04-13T17:25:12.486Z,100933.94
2023-04-13T17:30:17.900Z,100948.03
2023-04-13T17:35:20.782Z,100945.84
2023-04-13T17:40:24.605Z,100926.03
2023-04-13T17:45:30.624Z,100920.91
2023-04-13T17:50:34.562Z,100927.28
2023-04-13T17:55:38.991Z,100927.19
2023-04-13T18:00:44.309Z,100925.72
2023-04-13T18:05:47.230Z,100925.63
2023-04-13T18:10:50.872Z,100915.66
2023-04-13T18:15:56.652Z,100912.22
2023-04-13T18:21:00.312Z,100912.63
2023-04-13T18:26:03.960Z,100907.34
2023-04-13T18:31:09.444Z,100906.28
2023-04-13T18:36:16.336Z,100920.16
2023-04-13T18:41:20.010Z,100904.81
2023-04-13T18:46:25.434Z,100893.28
2023-04-13T18:51:29.840Z,100894.78
2023-04-13T18:56:33.593Z,100899.75
2023-04-13T19:01:38.955Z,100896.72
2023-04-13T19:06:42.554Z,100894.41
2023-04-13T19:11:47.444Z,100884.88
2023-04-13T19:16:52.926Z,100865.63
2023-04-13T19:21:57.129Z,100866.81
2023-04-13T19:27:01.039Z,100862.56
2023-04-13T19:32:07.048Z,100851.84
2023-04-13T19:37:11.032Z,100837.78
2023-04-13T19:42:14.907Z,100827.47
2023-04-13T19:47:20.485Z,100833.91
2023-04-13T19:52:26.668Z,100823.09
2023-04-13T19:57:30.756Z,100811.22
2023-04-13T20:02:36.329Z,100807.81
2023-04-13T20:07:40.278Z,100804.56
2023-04-13T20:12:44.114Z,100789.34
2023-04-13T20:17:50.583Z,100786.75
2023-04-13T20:22:54.361Z,100775.16
2023-04-13T20:27:58.195Z,100777.91
2023-04-13T20:33:05.619Z,100761.06
2023-04-13T20:38:10.995Z,100758.78
2023-04-13T20:43:14.666Z,100736.69
2023-04-13T20:53:26.468Z,100759.56
2023-04-13T20:58:30.260Z,100742.75
2023-04-13T21:03:35.759Z,100739.28
2023-04-13T21:08:39.497Z,100731.50
2023-04-13T21:13:43.234Z,100741.81
2023-04-13T21:18:48.542Z,100730.16
2023-04-13T21:23:52.198Z,100719.00
2023-04-13T21:28:55.831Z,100726.53
2023-04-13T21:34:01.879Z,100722.41
2023-04-13T21:39:05.757Z,100725.72
2023-04-13T21:44:19.137Z,100728.13
2023-04-13T21:49:33.869Z,100719.56
2023-04-13T21:54:37.630Z,100734.88
2023-04-13T21:59:42.052Z,100731.81
2023-04-13T22:04:47.302Z,100729.84
2023-04-13T22:09:50.905Z,100729.31
2023-04-13T22:14:54.594Z,100723.75
2023-04-13T22:19:59.908Z,100720.88
2023-04-13T22:25:03.595Z,100730.00
2023-04-13T22:30:08.450Z,100734.94
2023-04-13T22:35:16.015Z,100714.09
2023-04-13T22:40:19.820Z,100710.06
2023-04-13T22:45:23.745Z,100695.47
2023-04-13T22:50:29.106Z,100686.97
2023-04-13T22:55:32.840Z,100691.13
2023-04-13T23:00:36.485Z,100678.69
2023-04-13T23:05:41.953Z,100679.41
2023-04-13T23:10:45.594Z,100685.19
2023-04-13T23:15:49.327Z,100699.66
2023-04-13T23:20:55.546Z,100698.31
2023-04-13T23:25:59.153Z,100707.44
2023-04-13T23:31:07.134Z,100707.28
2023-04-13T23:36:14.303Z,100700.53
2023-04-13T23:41:17.893Z,100693.94
2023-04-13T23:46:21.704Z,100684.56
2023-04-13T23:51:27.074Z,100675.09
2023-04-13T23:56:30.780Z,100675.44
